»·PEaware :: UAL3857 KABQ-KDEN

UAL3857 :: KABQ-KDEN

FLIGHT INFORMATION

Flight Status: Arrived
Operator:
United Airlines
More flights by this operator :: More flights under this callsign
Pilot: Kent W. (37946)
Aircraft: DEHAVILLAND DASH 8 400
(DH8D)
More flights by this aircraft type
Origin: KABQ Albuquerque Intl Sunport
United States
Destination: KDEN Denver Intl
United States
More flights between these airports :: More routes between these airports
Route: ABQ3 ALS HBU POWDR1
File this flight plan on PilotEdge
Remarks: RMK / SIMBRIEF
Altitude:
(Current/Filed)
24,000ft
Speed:
(Current/Filed)
331kts
Departed: 17-Aug-22 08:12 PM
Arrived: 17-Aug-22 09:36 PM
Distance/Time
Traveled:
303nm/1:24
Distance/Time
To Go:
Arrived

Flight Plot

Page will automatically refresh every two minutes.

Flight plan parsing failed; only flown route is shown


Map Options




Map Legend


Flown Route
Filed Route
Departure Airport
Arrival Airport
Navaid (VOR, NDB)
Fix

Horizontal Profiles

Position Reports

Time Latitude Longitude Heading Altitude Ground
Speed
17-Aug-22 19:48 35.047348 -106.613876 270 5320ft 0kts
17-Aug-22 19:49 35.047348 -106.613876 270 5320ft 0kts
17-Aug-22 19:50 35.047348 -106.613876 270 5320ft 0kts
17-Aug-22 19:51 35.047348 -106.613876 270 5320ft 0kts
17-Aug-22 19:52 35.047348 -106.613876 270 5320ft 0kts
17-Aug-22 19:53 35.047348 -106.613876 270 5320ft 0kts
17-Aug-22 19:54 35.047348 -106.613876 270 5320ft 0kts
17-Aug-22 19:55 35.047348 -106.613876 270 5319ft 0kts
17-Aug-22 19:56 35.047348 -106.613876 270 5319ft 0kts
17-Aug-22 19:57 35.047348 -106.613876 270 5319ft 0kts
17-Aug-22 19:58 35.047348 -106.613876 270 5319ft 0kts
17-Aug-22 19:59 35.047348 -106.613876 270 5319ft 0kts
17-Aug-22 20:00 35.047348 -106.613859 270 5320ft 0kts
17-Aug-22 20:01 35.047348 -106.613860 270 5319ft 0kts
17-Aug-22 20:02 35.047348 -106.613860 270 5319ft 0kts
17-Aug-22 20:03 35.047348 -106.613860 270 5319ft 0kts
17-Aug-22 20:04 35.047534 -106.613550 180 5320ft 0kts
17-Aug-22 20:05 35.047367 -106.613555 180 5320ft 4kts
17-Aug-22 20:06 35.045756 -106.613608 218 5320ft 6kts
17-Aug-22 20:07 35.045527 -106.618415 268 5315ft 15kts
17-Aug-22 20:08 35.045290 -106.621359 193 5304ft 0kts
17-Aug-22 20:09 35.045290 -106.621359 193 5304ft 0kts
17-Aug-22 20:10 35.044340 -106.620886 90 5307ft 0kts
17-Aug-22 20:11 35.044298 -106.614322 90 5319ft 87kts
17-Aug-22 20:12 35.048721 -106.555130 62 6330ft 226kts
17-Aug-22 20:13 35.107170 -106.555975 318 8388ft 251kts
17-Aug-22 20:14 35.161852 -106.610185 318 10296ft 256kts
17-Aug-22 20:15 35.217597 -106.665426 319 11885ft 261kts
17-Aug-22 20:17 35.274382 -106.721467 319 13355ft 265kts
17-Aug-22 20:18 35.332318 -106.778271 319 14704ft 269kts
17-Aug-22 20:19 35.387849 -106.832226 319 16416ft 251kts
17-Aug-22 20:20 35.445154 -106.881078 351 17406ft 260kts
17-Aug-22 20:21 35.510195 -106.843706 27 18304ft 265kts
17-Aug-22 20:22 35.577099 -106.804559 22 19230ft 268kts
17-Aug-22 20:23 35.645346 -106.767085 22 20098ft 271kts
17-Aug-22 20:24 35.714260 -106.729449 21 20905ft 273kts
17-Aug-22 20:25 35.783928 -106.691358 21 21650ft 275kts
17-Aug-22 20:26 35.853651 -106.653161 21 22477ft 270kts
17-Aug-22 20:27 35.921390 -106.615999 21 23221ft 267kts
17-Aug-22 20:28 35.989238 -106.578692 21 23759ft 268kts
17-Aug-22 20:29 36.057381 -106.541154 21 24237ft 270kts
17-Aug-22 20:30 36.126743 -106.502875 21 24450ft 280kts
17-Aug-22 20:31 36.199776 -106.462479 21 24454ft 296kts
17-Aug-22 20:32 36.276638 -106.419855 21 24452ft 310kts
17-Aug-22 20:33 36.356733 -106.375347 21 24450ft 321kts
17-Aug-22 20:34 36.439274 -106.329383 22 24449ft 329kts
17-Aug-22 20:35 36.523411 -106.282418 22 24445ft 335kts
17-Aug-22 20:36 36.608653 -106.234731 22 24434ft 338kts
17-Aug-22 20:37 36.694692 -106.186487 22 24430ft 339kts
17-Aug-22 20:38 36.780890 -106.138032 22 24430ft 340kts
17-Aug-22 20:39 36.866967 -106.089519 22 24432ft 340kts
17-Aug-22 20:40 36.953087 -106.040867 22 24438ft 340kts
17-Aug-22 20:41 37.039640 -105.991848 22 24438ft 342kts
17-Aug-22 20:42 37.125689 -105.942949 23 24430ft 334kts
17-Aug-22 20:43 37.208893 -105.895611 23 24437ft 324kts
17-Aug-22 20:43 37.276732 -105.856918 23 24437ft 319kts
17-Aug-22 20:45 37.371502 -105.847116 329 24443ft 315kts
17-Aug-22 20:46 37.392309 -105.866058 325 24438ft 316kts
17-Aug-22 21:05 38.695279 -106.645139 49 24457ft 309kts
17-Aug-22 21:06 38.748581 -106.558005 49 24474ft 310kts
17-Aug-22 21:07 38.801584 -106.471110 49 24518ft 311kts
17-Aug-22 21:08 38.854933 -106.383420 49 24532ft 313kts
17-Aug-22 21:09 38.908778 -106.294657 49 24525ft 316kts
17-Aug-22 21:10 38.962692 -106.205533 48 24537ft 316kts
17-Aug-22 21:11 39.016632 -106.116126 48 24528ft 316kts
17-Aug-22 21:12 39.070154 -106.027159 48 24522ft 314kts
17-Aug-22 21:13 39.123291 -105.938598 48 24533ft 313kts
17-Aug-22 21:14 39.176996 -105.848902 48 23958ft 329kts
17-Aug-22 21:15 39.233967 -105.753396 49 22262ft 333kts
17-Aug-22 21:16 39.289220 -105.660588 51 20664ft 322kts
17-Aug-22 21:17 39.342995 -105.569620 52 18866ft 321kts
17-Aug-22 21:18 39.397181 -105.478307 52 17096ft 318kts
17-Aug-22 21:19 39.448322 -105.391690 53 16250ft 291kts
17-Aug-22 21:20 39.496024 -105.310568 54 15495ft 277kts
17-Aug-22 21:21 39.541823 -105.232488 54 14799ft 268kts
17-Aug-22 21:22 39.586411 -105.156285 54 14123ft 266kts
17-Aug-22 21:23 39.631130 -105.079644 54 13441ft 268kts
17-Aug-22 21:24 39.676091 -105.002442 52 12754ft 268kts
17-Aug-22 21:25 39.720776 -104.925573 51 12070ft 265kts
17-Aug-22 21:26 39.764993 -104.849296 51 11394ft 264kts
17-Aug-22 21:27 39.825279 -104.808940 358 10571ft 265kts
17-Aug-22 21:28 39.899798 -104.814522 358 9543ft 268kts
17-Aug-22 21:29 39.972285 -104.810157 8 8108ft 255kts
17-Aug-22 21:30 40.024804 -104.773197 74 7505ft 204kts
17-Aug-22 21:31 39.999062 -104.711136 126 7101ft 208kts
17-Aug-22 21:32 39.951174 -104.697734 178 6718ft 185kts
17-Aug-22 21:33 39.903033 -104.696148 179 5669ft 153kts
17-Aug-22 21:34 39.875130 -104.696366 177 5444ft 54kts
17-Aug-22 21:35 39.865851 -104.694754 150 5444ft 8kts
17-Aug-22 21:36 39.864780 -104.693983 150 5444ft 11kts
17-Aug-22 21:37 39.860351 -104.689714 89 5444ft 15kts
17-Aug-22 21:38 39.860286 -104.685212 89 5444ft 19kts
17-Aug-22 21:39 39.859632 -104.679471 179 5444ft 4kts
17-Aug-22 21:40 39.859409 -104.679472 180 5444ft 0kts

Navigation Log

Ident Type
Flight plan parsing failed, navigation log unavailable